Details From EGGW - London Luton
To GCTS - Tenerife Sur
Flight Number -
Tags Generated
Created
Modified
Stats Distance 1,606 nm / 2,974 km
Max Altitude 0 ft / 0 m
Waypoints 5
Social Downloads 6
Likes 0
Share VATSIM

Download

Looking for another format? Having issues loading an existing format? Contact us
Advertisement - Login to hide

Notes

Generated

Route

EGGW SOPEX VON TES GCTS

ID Type Via Altitude Latitude Longitude Leg Dist Tot Dist Heading (true) Name
O EGGW APT - 0 ft / 0 m 51.87202˚ -0.38355˚ - 0 nm - -
SOPEX FIX - 0 ft / 0 m 48.61333˚ -3.55000˚ 230 nm 230 nm 213° / 211° -
VON NDB - 0 ft / 0 m 42.18604˚ -8.63900˚ 441 nm 671 nm 211° / 207° VIGO NDB
TES NDB - 0 ft / 0 m 28.05472˚ -16.56278˚ 932 nm 1604 nm 207° / 202° TENERIFE SUR NDB
O GCTS APT - 0 ft / 0 m 28.03920˚ -16.58764˚ 1 nm 1606 nm 235° / 235° -

Altitude Profile

Advertisement - Login to hide

Weather


0- 5 10 15 20 25 30 35+ Temperature / ° C

Clouds and Precipitation
Forecast for 2018-05-20 12:00 UTC. Updated 3 hours ago

Ground ~20,000 ft ~40,000 ft Winds

EGGW

Details ICAO EGGW (LTN)
Name London Luton
Region United Kingdom
Timezone Europe/London (UTC+1.0)
Stats Elevation 526 ft / 160 m (AMSL)
Location 51.874629° -0.368450°
Runways 1
Magnetic Variation 0.509° W

METAR

EGGW 201420Z AUTO 11005KT 040V160 9999 NCD 20/09 Q1021

Decode

TAF

TAF EGGW 201100Z 2012/2112 12006KT 9999 FEW035 BECMG 2022/2101 6000 TEMPO 2101/2108 2500 BR BKN002 PROB30 2102/2107 0300 FG OVC000 BECMG 2107/2110 9999

Decode

Departure Runways

ID Width Length Bearing (true) Bearing (mag) Surface Threshold Offset Overrun Length
08 151 ft / 46 m 7,066 ft / 2,154 m 74.35° 74.86° Asphalt 0 ft / 0 m 200 ft / 61 m
26 151 ft / 46 m 7,066 ft / 2,154 m 254.38° 254.89° Asphalt 272 ft / 83 m 0 ft / 0 m

GCTS

Details ICAO GCTS (TFS)
Name Tenerife Sur
Region Canary Islands
Timezone Atlantic/Canary (UTC+1.0)
Stats Elevation 209 ft / 64 m (AMSL)
Location 28.044475° -16.572488°
Runways 1
Magnetic Variation 5.067° W

METAR

GCTS 201400Z 12010KT 080V140 9999 FEW030 BKN037 20/12 Q1017 NOSIG

Decode

TAF

TAF AMD TAF AMD GCTS 201134Z 2011/2109 18006KT 9999 SCT040 TX23/2015Z TN16/2105Z TEMPO 2011/2018 09010KT

Decode

Destination Runways

ID Width Length Bearing (true) Bearing (mag) Surface Threshold Offset Overrun Length
08 148 ft / 45 m 10,489 ft / 3,197 m 68.47° 73.54° Asphalt 0 ft / 0 m 0 ft / 0 m
26 148 ft / 45 m 10,489 ft / 3,197 m 248.49° 253.56° Asphalt 0 ft / 0 m 0 ft / 0 m

Approach Navaids

Runway Type Ident Frequency Range Bearing (true) Bearing (mag) Slope Elevation
08 Localiser TRS 109.70 MHz 18 nm / 33 km 68.49° 73.56° - 187 ft / 57 m (AMSL)
08 Glidescope TRS 109.70 MHz 10 nm / 19 km 68.48° 73.55° 3.00° 209 ft / 64 m (AMSL)
26 Localiser ISUR 110.90 MHz 18 nm / 33 km 248.52° 253.58° - 209 ft / 64 m (AMSL)
26 Glidescope ISUR 110.90 MHz 10 nm / 19 km 248.48° 253.55° 3.00° 236 ft / 72 m (AMSL)
26 DME ISUR 110.90 MHz 18 nm / 33 km - - - 236 ft / 72 m (AMSL)

Popular Alternatives